Time;durP1;ratioP1;P1;durP2;ratioP2;P2;SDS_P1;SDS_P2;PMS_P1;PMS_P2;Temp;Humidity;BMP_temperature;BMP_pressure;BME280_temperature;BME280_humidity;BME280_pressure;Samples;Min_cycle;Max_cycle;Signal;HPM_P1;HPM_P2
2022/09/26 00:00:36;;;;;;;8.60;2.17;;;11.40;99.90;;;;;;4871206;29;20053;-85
2022/09/26 00:03:01;;;;;;;7.45;1.20;;;11.30;99.90;;;;;;4902299;29;20410;-85
2022/09/26 00:05:29;;;;;;;5.13;1.13;;;11.30;99.90;;;;;;4891140;29;20052;-85
2022/09/26 00:07:55;;;;;;;3.75;1.30;;;11.60;99.90;;;;;;4903389;29;20045;-85
2022/09/26 00:10:21;;;;;;;4.28;1.30;;;11.30;99.90;;;;;;4872085;29;20045;-84
2022/09/26 00:12:47;;;;;;;4.43;1.60;;;11.50;99.90;;;;;;4858009;29;20071;-85
2022/09/26 00:15:12;;;;;;;3.00;1.25;;;11.50;99.90;;;;;;4903245;29;20069;-86
2022/09/26 00:17:38;;;;;;;3.63;1.20;;;11.30;99.90;;;;;;4874775;29;20029;-85
2022/09/26 00:20:04;;;;;;;3.08;1.55;;;11.30;99.90;;;;;;4889602;29;20048;-84
2022/09/26 00:22:29;;;;;;;6.47;1.20;;;11.30;99.90;;;;;;4873335;29;20044;-85
2022/09/26 00:24:55;;;;;;;6.82;1.58;;;11.20;99.90;;;;;;4874913;29;20045;-85
2022/09/26 00:27:21;;;;;;;8.88;1.60;;;11.40;99.90;;;;;;4903409;29;20045;-85
2022/09/26 00:29:47;;;;;;;4.35;1.40;;;11.30;99.90;;;;;;4856632;29;20124;-84
2022/09/26 00:32:12;;;;;;;3.78;1.40;;;10.60;99.90;;;;;;4885968;29;20048;-86
2022/09/26 00:34:38;;;;;;;3.70;1.60;;;11.80;99.90;;;;;;4886600;29;20645;-85
2022/09/26 00:37:03;;;;;;;5.50;1.83;;;11.40;99.90;;;;;;4875960;29;20195;-85
2022/09/26 00:39:29;;;;;;;7.40;1.85;;;11.70;99.90;;;;;;4874775;29;20048;-84
2022/09/26 00:41:55;;;;;;;6.07;1.40;;;11.40;99.90;;;;;;4902880;29;20043;-84
2022/09/26 00:44:54;;;;;;;3.33;1.10;;;11.40;99.90;;;;;;4887056;29;20033;-84
2022/09/26 00:47:43;;;;;;;4.43;1.55;;;11.30;99.90;;;;;;4864600;29;20049;-84
2022/09/26 00:50:20;;;;;;;4.45;2.15;;;11.40;99.90;;;;;;4870946;29;20591;-86
2022/09/26 00:53:13;;;;;;;6.63;1.58;;;11.40;99.90;;;;;;4868326;29;20045;-84
2022/09/26 00:55:43;;;;;;;4.80;1.75;;;11.40;99.90;;;;;;4882905;29;20045;-84
2022/09/26 00:58:33;;;;;;;4.03;1.42;;;11.30;99.90;;;;;;4904951;29;20052;-85
2022/09/26 01:00:59;;;;;;;4.38;1.27;;;11.40;99.90;;;;;;4872834;29;20053;-85
2022/09/26 01:03:27;;;;;;;2.92;1.27;;;11.90;99.90;;;;;;4885068;29;20111;-84
2022/09/26 01:05:54;;;;;;;5.20;1.15;;;11.60;99.90;;;;;;4874903;29;20049;-84
2022/09/26 01:08:27;;;;;;;3.08;1.00;;;11.30;99.90;;;;;;4873301;29;20041;-84
2022/09/26 01:10:53;;;;;;;4.18;1.40;;;11.30;99.90;;;;;;4886696;29;20041;-84
2022/09/26 01:13:20;;;;;;;4.22;0.80;;;11.60;99.90;;;;;;4887008;29;20041;-84
2022/09/26 01:15:46;;;;;;;3.53;0.90;;;11.20;99.90;;;;;;4887137;29;20097;-84
2022/09/26 01:18:12;;;;;;;3.35;1.02;;;11.30;99.90;;;;;;4903504;29;20056;-86
2022/09/26 01:20:49;;;;;;;6.15;1.00;;;11.30;99.90;;;;;;4902284;29;20067;-86
2022/09/26 01:23:40;;;;;;;6.15;1.25;;;11.30;99.90;;;;;;4885200;29;20041;-85
2022/09/26 01:26:18;;;;;;;3.28;0.98;;;11.30;99.90;;;;;;4885178;29;20049;-84
2022/09/26 01:29:24;;;;;;;3.33;0.82;;;11.20;99.90;;;;;;4860810;29;20053;-85
2022/09/26 01:35:28;;;;;;;3.53;0.82;;;11.20;99.90;;;;;;4899868;29;20132;-84
2022/09/26 01:38:15;;;;;;;4.10;0.88;;;11.30;99.90;;;;;;4838901;29;20090;-85
2022/09/26 01:41:18;;;;;;;5.00;1.17;;;11.30;99.90;;;;;;4870306;29;20136;-85
2022/09/26 01:44:00;;;;;;;8.40;1.40;;;11.30;99.90;;;;;;4887781;29;20049;-84
2022/09/26 01:46:47;;;;;;;4.47;1.23;;;11.30;99.90;;;;;;4875927;29;20040;-84
2022/09/26 01:49:31;;;;;;;5.80;1.67;;;11.30;99.90;;;;;;4872622;29;20051;-84
2022/09/26 01:52:02;;;;;;;7.78;1.27;;;11.30;99.90;;;;;;4875157;29;20224;-85
2022/09/26 01:54:51;;;;;;;4.13;1.25;;;11.50;99.90;;;;;;4875875;29;20079;-84
2022/09/26 01:57:27;;;;;;;7.15;1.35;;;11.20;99.90;;;;;;4884886;29;20033;-86
2022/09/26 01:59:59;;;;;;;4.53;1.10;;;11.30;99.90;;;;;;4873479;29;20116;-85
2022/09/26 02:02:27;;;;;;;6.05;1.20;;;11.30;99.90;;;;;;4889992;29;20036;-84
2022/09/26 02:04:58;;;;;;;6.22;0.93;;;12.10;99.90;;;;;;4859694;29;20064;-84
2022/09/26 02:07:33;;;;;;;8.73;1.67;;;11.30;99.90;;;;;;4861149;29;20403;-84
2022/09/26 02:10:12;;;;;;;4.15;1.10;;;11.70;99.90;;;;;;4873922;29;20156;-84
2022/09/26 02:12:41;;;;;;;4.53;1.00;;;11.40;99.90;;;;;;4855904;29;20471;-86
2022/09/26 02:15:13;;;;;;;4.32;1.05;;;11.30;99.90;;;;;;4901531;29;20045;-86
2022/09/26 02:17:42;;;;;;;4.35;1.20;;;11.40;99.90;;;;;;4874322;29;20112;-87
2022/09/26 02:20:14;;;;;;;3.50;0.93;;;11.40;99.90;;;;;;4901044;29;20051;-84
2022/09/26 02:22:40;;;;;;;5.43;1.02;;;11.40;99.90;;;;;;4901532;29;20045;-86
2022/09/26 02:25:07;;;;;;;6.05;1.15;;;11.40;99.90;;;;;;4871789;29;20044;-85
2022/09/26 02:27:33;;;;;;;3.60;1.23;;;11.40;99.90;;;;;;4871648;29;20127;-84
2022/09/26 02:29:58;;;;;;;3.22;1.02;;;11.40;99.90;;;;;;4869920;29;20132;-85
2022/09/26 02:32:29;;;;;;;8.80;1.52;;;11.40;99.90;;;;;;4903367;29;20064;-85
2022/09/26 02:34:56;;;;;;;9.18;1.73;;;11.40;99.90;;;;;;4906097;29;20044;-85
2022/09/26 02:37:27;;;;;;;5.13;1.92;;;11.40;99.90;;;;;;4869250;29;20090;-85
2022/09/26 02:39:54;;;;;;;4.88;1.48;;;12.20;99.90;;;;;;4857054;29;20048;-84
2022/09/26 02:42:32;;;;;;;7.35;2.13;;;11.50;99.90;;;;;;4869771;29;20100;-85
2022/09/26 02:45:16;;;;;;;5.78;1.63;;;11.40;99.90;;;;;;4869391;29;20049;-85
2022/09/26 02:47:53;;;;;;;6.47;1.45;;;11.40;99.90;;;;;;4871701;29;20076;-85
2022/09/26 02:50:36;;;;;;;5.10;1.90;;;11.40;99.90;;;;;;4890021;29;20105;-84
2022/09/26 02:53:20;;;;;;;6.97;2.40;;;11.40;99.90;;;;;;4870705;29;20049;-85
2022/09/26 02:56:22;;;;;;;6.82;2.03;;;11.30;99.90;;;;;;4856767;29;20497;-84
2022/09/26 02:58:53;;;;;;;6.35;1.80;;;11.30;99.90;;;;;;4873875;29;20060;-85
2022/09/26 03:01:24;;;;;;;5.85;2.08;;;11.30;99.90;;;;;;4887216;29;20534;-84
2022/09/26 03:04:03;;;;;;;7.80;2.00;;;11.30;99.90;;;;;;4903015;29;20041;-85
2022/09/26 03:06:34;;;;;;;7.85;2.75;;;11.30;99.90;;;;;;4885403;29;20067;-84
2022/09/26 03:09:00;;;;;;;4.35;2.75;;;11.90;99.90;;;;;;4884607;29;20045;-85
2022/09/26 03:11:28;;;;;;;6.28;2.83;;;11.20;99.90;;;;;;4888221;29;20104;-84
2022/09/26 03:13:55;;;;;;;3.15;2.70;;;12.00;99.90;;;;;;4871703;29;20392;-85
2022/09/26 03:16:22;;;;;;;7.50;3.28;;;11.90;99.90;;;;;;4870897;29;20484;-84
2022/09/26 03:18:53;;;;;;;6.13;3.25;;;11.30;99.90;;;;;;4858843;29;20055;-84
2022/09/26 03:21:19;;;;;;;6.15;3.22;;;11.30;99.90;;;;;;4904569;29;20033;-84
2022/09/26 03:23:45;;;;;;;6.03;3.30;;;11.20;99.90;;;;;;4859912;29;20037;-84
2022/09/26 03:26:23;;;;;;;6.22;2.85;;;11.60;99.90;;;;;;4905170;29;20104;-84
2022/09/26 03:28:52;;;;;;;8.35;3.55;;;11.30;99.90;;;;;;4857757;29;20050;-83
2022/09/26 03:31:21;;;;;;;5.18;3.42;;;11.40;99.90;;;;;;4886842;29;20625;-84
2022/09/26 03:33:47;;;;;;;6.43;3.25;;;11.20;99.90;;;;;;4902366;29;20040;-86
2022/09/26 03:36:13;;;;;;;5.10;3.38;;;11.20;99.90;;;;;;4886908;29;20071;-86
2022/09/26 03:38:38;;;;;;;6.95;3.63;;;11.20;99.90;;;;;;4897691;29;20041;-85
2022/09/26 03:41:06;;;;;;;6.88;3.50;;;11.40;99.90;;;;;;4885155;29;20428;-84
2022/09/26 03:43:32;;;;;;;6.35;3.15;;;11.10;99.90;;;;;;4858875;29;20116;-84
2022/09/26 03:46:05;;;;;;;7.18;3.40;;;11.20;99.90;;;;;;4856707;29;20056;-84
2022/09/26 03:48:32;;;;;;;7.07;3.20;;;11.60;99.90;;;;;;4854629;29;20049;-84
2022/09/26 03:51:06;;;;;;;6.00;4.07;;;11.20;99.90;;;;;;4873016;29;20080;-84
2022/09/26 03:53:33;;;;;;;8.18;3.92;;;11.20;99.90;;;;;;4862223;29;20080;-84
2022/09/26 03:56:19;;;;;;;7.35;3.47;;;11.20;99.90;;;;;;4901180;29;20528;-83
2022/09/26 03:58:45;;;;;;;6.60;3.27;;;11.20;99.90;;;;;;4860022;29;20044;-85
2022/09/26 04:01:16;;;;;;;7.43;4.50;;;11.20;99.90;;;;;;4856030;29;20822;-84
2022/09/26 04:03:46;;;;;;;6.90;3.20;;;11.20;99.90;;;;;;4898325;29;20400;-85
2022/09/26 04:06:12;;;;;;;5.00;3.58;;;11.20;99.90;;;;;;4900239;29;20085;-86
2022/09/26 04:08:40;;;;;;;6.28;3.80;;;11.20;99.90;;;;;;4885338;29;20053;-86
2022/09/26 04:11:11;;;;;;;9.98;3.90;;;11.20;99.90;;;;;;4865640;29;20049;-85
2022/09/26 04:13:37;;;;;;;6.93;3.75;;;11.20;99.90;;;;;;4873517;29;20107;-86
2022/09/26 04:16:07;;;;;;;11.05;3.95;;;11.20;99.90;;;;;;4903425;29;20052;-84
2022/09/26 04:18:34;;;;;;;5.38;3.72;;;11.10;99.90;;;;;;4901449;29;20045;-85
2022/09/26 04:21:01;;;;;;;8.20;4.13;;;11.10;99.90;;;;;;4860022;29;20052;-84
2022/09/26 04:23:29;;;;;;;6.00;3.55;;;11.10;99.90;;;;;;4871986;29;20048;-84
2022/09/26 04:26:01;;;;;;;7.82;5.13;;;11.10;99.90;;;;;;4888379;29;20056;-86
2022/09/26 04:28:40;;;;;;;8.82;4.35;;;11.10;99.90;;;;;;4890468;29;20049;-86
2022/09/26 04:31:12;;;;;;;7.07;4.55;;;11.00;99.90;;;;;;4902768;29;20385;-86
2022/09/26 04:33:39;;;;;;;6.10;4.90;;;11.00;99.90;;;;;;4886036;29;20412;-87
2022/09/26 04:36:09;;;;;;;6.15;4.15;;;11.00;99.90;;;;;;4903935;29;20043;-86
2022/09/26 04:38:35;;;;;;;7.18;4.13;;;11.10;99.90;;;;;;4876966;29;20059;-85
2022/09/26 04:41:19;;;;;;;5.25;4.30;;;11.00;99.90;;;;;;4860585;29;20083;-84
2022/09/26 04:43:45;;;;;;;4.85;4.18;;;11.00;99.90;;;;;;4869765;29;20119;-83
2022/09/26 04:46:16;;;;;;;6.78;4.60;;;10.90;99.90;;;;;;4857943;29;20451;-84
2022/09/26 04:48:42;;;;;;;6.55;4.72;;;11.00;99.90;;;;;;4859037;29;20415;-83
2022/09/26 04:51:11;;;;;;;11.57;5.28;;;11.10;99.90;;;;;;4873010;29;20086;-83
2022/09/26 04:57:25;;;;;;;6.78;5.35;;;10.90;99.90;;;;;;4879084;29;20093;-84
2022/09/26 04:59:51;;;;;;;9.00;4.80;;;11.00;99.90;;;;;;4860012;29;20427;-84
2022/09/26 05:02:18;;;;;;;7.53;5.35;;;11.00;99.90;;;;;;4867981;29;20053;-84
2022/09/26 05:04:47;;;;;;;7.10;4.90;;;11.00;99.90;;;;;;4903881;29;20049;-87
2022/09/26 05:07:13;;;;;;;8.40;5.45;;;11.00;99.90;;;;;;4873175;29;20048;-89
2022/09/26 05:09:42;;;;;;;10.32;5.22;;;11.00;99.90;;;;;;4886986;29;20049;-88
2022/09/26 05:12:07;;;;;;;8.32;5.70;;;11.00;99.90;;;;;;4884673;29;20037;-85
2022/09/26 05:14:35;;;;;;;10.13;6.45;;;11.20;99.90;;;;;;4902343;29;21206;-85
2022/09/26 05:17:02;;;;;;;7.18;5.65;;;11.00;99.90;;;;;;4891217;29;20045;-85
2022/09/26 05:19:28;;;;;;;7.25;5.57;;;10.90;99.90;;;;;;4876972;29;20045;-84
2022/09/26 05:21:53;;;;;;;8.63;5.85;;;11.00;99.90;;;;;;4879357;29;20100;-83
2022/09/26 05:27:05;;;;;;;6.07;5.35;;;10.90;99.90;;;;;;4876276;29;20037;-84
2022/09/26 05:29:31;;;;;;;9.65;5.90;;;11.30;99.90;;;;;;4889297;29;20132;-84
2022/09/26 05:31:57;;;;;;;9.70;6.32;;;10.90;99.90;;;;;;4870816;29;20148;-84
2022/09/26 05:34:25;;;;;;;8.57;5.40;;;10.90;99.90;;;;;;4908866;29;20069;-84
2022/09/26 05:36:55;;;;;;;9.93;5.57;;;10.90;99.90;;;;;;4859097;29;20551;-85
2022/09/26 05:42:07;;;;;;;6.68;5.05;;;10.90;99.90;;;;;;4871690;29;20077;-86
2022/09/26 05:44:33;;;;;;;10.00;5.53;;;10.90;99.90;;;;;;4890330;29;20052;-85
2022/09/26 05:46:59;;;;;;;5.75;4.97;;;11.70;99.90;;;;;;4877403;29;20138;-84
2022/09/26 05:49:24;;;;;;;8.00;4.97;;;10.80;99.90;;;;;;4887071;29;20061;-84
2022/09/26 05:51:51;;;;;;;7.47;5.30;;;11.00;99.90;;;;;;4871559;29;21005;-82
2022/09/26 05:54:17;;;;;;;5.97;4.60;;;10.80;99.90;;;;;;4900413;29;20368;-85
2022/09/26 05:56:44;;;;;;;7.38;5.68;;;10.80;99.90;;;;;;4873318;29;20053;-86
2022/09/26 05:59:10;;;;;;;6.45;5.10;;;10.80;99.90;;;;;;4885978;29;20433;-84
2022/09/26 06:08:59;;;;;;;13.45;4.70;;;10.90;99.90;;;;;;4876705;29;20044;-83
2022/09/26 06:11:30;;;;;;;7.55;5.30;;;10.80;99.90;;;;;;4858630;29;20808;-83
2022/09/26 06:13:59;;;;;;;9.10;5.30;;;10.80;99.90;;;;;;4893386;29;20080;-83
2022/09/26 06:16:25;;;;;;;6.60;4.50;;;10.80;99.90;;;;;;4877578;29;20064;-83
2022/09/26 06:18:51;;;;;;;5.72;4.57;;;10.80;99.90;;;;;;4863837;29;20483;-83
2022/09/26 06:21:18;;;;;;;5.78;4.88;;;10.80;99.90;;;;;;4877737;29;20060;-83
2022/09/26 06:23:44;;;;;;;7.22;4.68;;;10.80;99.90;;;;;;4862471;29;20488;-83
2022/09/26 06:26:36;;;;;;;6.63;4.70;;;10.80;99.90;;;;;;4875876;29;20045;-85
2022/09/26 06:29:02;;;;;;;7.35;4.43;;;11.00;99.90;;;;;;4876258;29;20045;-84
2022/09/26 06:31:29;;;;;;;6.10;4.30;;;10.80;99.90;;;;;;4862639;29;20164;-83
2022/09/26 06:33:55;;;;;;;5.47;4.10;;;10.80;99.90;;;;;;4877658;29;20044;-83
2022/09/26 06:36:22;;;;;;;8.05;5.07;;;10.80;99.90;;;;;;4860157;29;20120;-84
2022/09/26 06:38:48;;;;;;;7.60;4.72;;;10.80;99.90;;;;;;4892420;29;20064;-84
2022/09/26 06:41:15;;;;;;;5.63;4.15;;;10.80;99.90;;;;;;4891807;29;20048;-84
2022/09/26 06:43:43;;;;;;;5.75;4.25;;;10.80;99.90;;;;;;4903789;29;20049;-83
2022/09/26 06:46:10;;;;;;;6.45;3.55;;;10.80;99.90;;;;;;4874867;29;20053;-84
2022/09/26 06:48:36;;;;;;;11.40;4.18;;;11.10;99.90;;;;;;4861071;29;20045;-84
2022/09/26 06:51:01;;;;;;;8.43;4.40;;;10.80;99.90;;;;;;4874430;29;20511;-83
2022/09/26 06:53:27;;;;;;;10.15;4.50;;;10.80;99.90;;;;;;4859470;29;21450;-83
2022/09/26 06:55:53;;;;;;;5.85;4.40;;;10.80;99.90;;;;;;4889791;29;20083;-83
2022/09/26 06:58:19;;;;;;;5.30;3.65;;;10.80;99.90;;;;;;4876748;29;20072;-83
2022/09/26 07:00:44;;;;;;;6.60;3.95;;;10.80;99.90;;;;;;4871918;29;20108;-83
2022/09/26 07:03:12;;;;;;;4.35;3.10;;;10.80;99.90;;;;;;4902458;29;20045;-83
2022/09/26 07:05:38;;;;;;;8.65;3.40;;;10.80;99.90;;;;;;4906339;29;20100;-83
2022/09/26 07:08:04;;;;;;;5.53;3.60;;;10.80;99.90;;;;;;4897176;29;20060;-83
2022/09/26 07:10:35;;;;;;;7.18;2.88;;;10.80;99.90;;;;;;4883954;29;20045;-83
2022/09/26 07:13:06;;;;;;;3.75;3.22;;;10.80;99.90;;;;;;4880643;29;20053;-83
2022/09/26 07:15:34;;;;;;;7.25;3.47;;;10.70;99.90;;;;;;4904833;29;20104;-82
2022/09/26 07:18:05;;;;;;;8.32;3.05;;;10.80;99.90;;;;;;4855970;29;20045;-82
2022/09/26 07:20:33;;;;;;;5.43;3.40;;;10.80;99.90;;;;;;4903008;29;20057;-83
2022/09/26 07:23:09;;;;;;;8.35;3.65;;;10.80;99.90;;;;;;4857875;29;20048;-82
2022/09/26 07:25:37;;;;;;;5.32;2.95;;;10.80;99.90;;;;;;4871540;29;20061;-82
2022/09/26 07:28:06;;;;;;;4.05;3.00;;;10.80;99.90;;;;;;4858721;29;20041;-83
2022/09/26 07:30:32;;;;;;;5.63;3.33;;;11.00;99.90;;;;;;4872141;29;20061;-83
2022/09/26 07:33:02;;;;;;;6.72;2.95;;;10.80;99.90;;;;;;4884781;29;20045;-82
2022/09/26 07:35:31;;;;;;;2.83;2.45;;;10.80;99.90;;;;;;4904561;29;20049;-83
2022/09/26 07:37:58;;;;;;;5.05;3.10;;;10.80;99.90;;;;;;4869441;29;20052;-83
2022/09/26 07:40:25;;;;;;;13.38;3.08;;;11.60;99.90;;;;;;4871064;29;20088;-83
2022/09/26 07:42:59;;;;;;;6.53;2.70;;;10.80;99.90;;;;;;4898802;29;20052;-85
2022/09/26 07:50:59;;;;;;;4.82;2.80;;;10.80;99.90;;;;;;4871169;29;20145;-85
2022/09/26 07:53:26;;;;;;;7.68;2.90;;;10.90;99.90;;;;;;4873274;29;20093;-84
2022/09/26 07:56:05;;;;;;;6.80;3.20;;;11.30;99.90;;;;;;4871867;29;20065;-84
2022/09/26 07:58:32;;;;;;;6.85;2.70;;;10.90;99.90;;;;;;4870655;29;20110;-85
2022/09/26 08:00:57;;;;;;;9.10;3.15;;;11.00;99.90;;;;;;4888400;29;20056;-83
2022/09/26 08:03:26;;;;;;;4.55;2.20;;;10.90;99.90;;;;;;4872537;29;20036;-83
2022/09/26 08:05:58;;;;;;;4.47;2.30;;;10.90;99.90;;;;;;4886038;29;20045;-82
2022/09/26 08:08:28;;;;;;;9.10;2.30;;;11.00;99.90;;;;;;4872712;29;20038;-83
2022/09/26 08:10:57;;;;;;;6.22;2.85;;;11.10;99.90;;;;;;4887368;29;20168;-82
2022/09/26 08:13:25;;;;;;;4.30;2.10;;;11.10;99.90;;;;;;4871184;29;20041;-82
2022/09/26 08:15:52;;;;;;;5.93;2.22;;;11.20;99.90;;;;;;4872429;29;20042;-82
2022/09/26 08:18:17;;;;;;;4.85;2.30;;;11.10;99.90;;;;;;4869773;29;20061;-83
2022/09/26 08:20:48;;;;;;;2.95;1.98;;;11.20;99.90;;;;;;4869746;29;20045;-84
2022/09/26 08:23:16;;;;;;;4.35;2.17;;;11.20;99.90;;;;;;4883998;29;20041;-82
2022/09/26 08:25:43;;;;;;;5.53;2.33;;;11.30;99.90;;;;;;4857561;29;20078;-83
2022/09/26 08:28:12;;;;;;;6.40;2.38;;;11.30;99.90;;;;;;4903499;29;20068;-82
2022/09/26 08:30:40;;;;;;;5.43;2.03;;;11.30;99.90;;;;;;4870193;29;20099;-83
2022/09/26 08:33:11;;;;;;;3.90;1.98;;;11.30;99.90;;;;;;4903366;29;20069;-83
2022/09/26 08:35:38;;;;;;;3.75;2.00;;;11.40;99.90;;;;;;4868741;29;20048;-84
2022/09/26 08:38:05;;;;;;;5.22;1.85;;;11.40;99.90;;;;;;4855592;29;20037;-82
2022/09/26 08:41:00;;;;;;;7.10;2.20;;;11.40;99.90;;;;;;4873907;29;20049;-83
2022/09/26 08:43:54;;;;;;;5.35;2.25;;;11.40;99.90;;;;;;4887361;29;20056;-82
2022/09/26 08:46:57;;;;;;;5.45;2.85;;;11.40;99.90;;;;;;4847703;29;20061;-84
2022/09/26 08:49:47;;;;;;;4.05;1.70;;;11.40;99.90;;;;;;4899739;29;20060;-81
2022/09/26 08:52:25;;;;;;;2.70;1.60;;;11.50;99.90;;;;;;4869219;29;20080;-83
2022/09/26 08:54:53;;;;;;;4.32;1.88;;;11.50;99.90;;;;;;4902398;29;20045;-83
2022/09/26 08:57:33;;;;;;;5.82;2.03;;;11.50;99.90;;;;;;4872968;29;20468;-81
2022/09/26 09:00:07;;;;;;;3.83;1.70;;;11.60;99.90;;;;;;4871429;29;20560;-82
2022/09/26 09:02:57;;;;;;;5.68;1.75;;;11.70;99.90;;;;;;4903587;29;20092;-81
2022/09/26 09:05:30;;;;;;;5.32;2.10;;;11.70;99.90;;;;;;4900384;29;20251;-81
2022/09/26 09:07:57;;;;;;;5.30;2.08;;;11.70;99.90;;;;;;4901479;29;20056;-83
2022/09/26 09:10:46;;;;;;;2.83;1.55;;;11.80;99.90;;;;;;4902755;29;20046;-82
2022/09/26 09:13:14;;;;;;;4.07;1.60;;;11.90;99.90;;;;;;4898628;29;20118;-84
2022/09/26 09:16:15;;;;;;;3.97;1.55;;;11.90;99.90;;;;;;4884719;29;20089;-83
2022/09/26 09:19:05;;;;;;;3.42;1.73;;;12.00;99.90;;;;;;4868393;29;20049;-83
2022/09/26 09:22:02;;;;;;;4.43;1.77;;;12.10;99.90;;;;;;4901564;29;20064;-81
2022/09/26 09:24:58;;;;;;;3.78;1.55;;;12.00;99.90;;;;;;4887794;29;20056;-82
2022/09/26 09:27:53;;;;;;;4.97;1.60;;;12.10;99.90;;;;;;4869411;29;20100;-83
2022/09/26 09:30:27;;;;;;;6.30;2.28;;;12.10;99.90;;;;;;4868573;29;20120;-83
2022/09/26 09:33:02;;;;;;;3.42;1.58;;;12.10;99.90;;;;;;4882717;29;20109;-84
2022/09/26 09:35:40;;;;;;;5.10;1.90;;;12.10;99.90;;;;;;4871840;29;20045;-81
2022/09/26 09:38:11;;;;;;;6.85;2.10;;;12.20;99.90;;;;;;4870083;29;20052;-83
2022/09/26 09:41:15;;;;;;;6.75;1.80;;;12.10;99.90;;;;;;4871126;29;20045;-83
2022/09/26 09:43:50;;;;;;;4.22;2.05;;;12.20;99.90;;;;;;4852179;29;20053;-82
2022/09/26 09:46:26;;;;;;;6.07;1.98;;;12.10;99.90;;;;;;4863134;29;20049;-84
2022/09/26 09:48:56;;;;;;;;;;;12.70;99.90;;;;;;4898898;29;20042;-80
2022/09/26 09:51:59;;;;;;;6.78;1.90;;;12.20;99.90;;;;;;4898168;29;20391;-81
2022/09/26 09:55:00;;;;;;;8.82;2.30;;;12.20;99.90;;;;;;4872706;29;20044;-81
2022/09/26 09:57:26;;;;;;;4.15;2.50;;;12.20;99.90;;;;;;4868406;29;20045;-82
2022/09/26 10:00:11;;;;;;;3.95;1.90;;;12.20;99.90;;;;;;4871058;29;20564;-81
2022/09/26 10:02:45;;;;;;;3.78;2.10;;;12.20;99.90;;;;;;4861986;29;20135;-83
2022/09/26 10:05:29;;;;;;;5.13;2.10;;;12.20;99.90;;;;;;4875180;29;20347;-83
2022/09/26 10:07:57;;;;;;;6.25;2.28;;;12.20;99.90;;;;;;4874043;29;20053;-83
2022/09/26 10:10:50;;;;;;;6.35;2.03;;;12.20;99.90;;;;;;4873660;29;20507;-83
2022/09/26 10:13:16;;;;;;;7.93;2.67;;;12.20;99.90;;;;;;4900641;29;20045;-83
2022/09/26 10:19:35;;;;;;;7.20;3.03;;;12.00;99.90;;;;;;4861238;29;20515;-82
2022/09/26 10:22:54;;;;;;;5.88;2.42;;;12.10;99.90;;;;;;4901775;29;20049;-85
2022/09/26 10:56:05;;;;;;;5.97;2.28;;;11.90;99.90;;;;;;4724212;30;20057;-84
2022/09/26 11:31:51;;;;;;;4.47;2.63;;;12.00;99.90;;;;;;5060816;28;20227;-84
2022/09/26 11:34:25;;;;;;;7.53;3.13;;;12.10;99.90;;;;;;5059568;28;20096;-83
2022/09/26 11:37:03;;;;;;;2.40;2.20;;;12.10;99.90;;;;;;5026021;28;20053;-84
2022/09/26 11:40:08;;;;;;;4.63;2.42;;;12.10;99.90;;;;;;5055396;28;20041;-84
2022/09/26 11:43:12;;;;;;;4.47;2.28;;;12.00;99.90;;;;;;5052159;28;20044;-84
2022/09/26 11:46:02;;;;;;;5.07;2.92;;;12.00;99.90;;;;;;5041690;28;20041;-83
2022/09/26 11:48:43;;;;;;;9.40;2.42;;;12.10;99.90;;;;;;5055412;28;20068;-83
2022/09/26 11:51:36;;;;;;;5.68;2.72;;;12.00;99.90;;;;;;5059908;28;20191;-82
2022/09/26 11:54:22;;;;;;;4.95;3.13;;;12.10;99.90;;;;;;5055514;28;20076;-83
2022/09/26 11:57:00;;;;;;;3.00;2.17;;;12.10;99.90;;;;;;5051983;28;20045;-83
2022/09/26 11:59:51;;;;;;;2.90;2.35;;;12.00;99.90;;;;;;5041243;28;20076;-82
2022/09/26 12:02:40;;;;;;;6.78;2.92;;;12.10;99.90;;;;;;5053135;28;20049;-82
2022/09/26 12:05:23;;;;;;;5.10;2.80;;;12.10;99.90;;;;;;5053535;28;20056;-83
2022/09/26 12:08:20;;;;;;;3.00;2.30;;;12.10;99.90;;;;;;5056763;28;20049;-82
2022/09/26 12:10:48;;;;;;;5.13;2.40;;;12.20;99.90;;;;;;5053921;28;20049;-83
2022/09/26 12:13:41;;;;;;;4.93;2.00;;;12.20;99.90;;;;;;5054314;28;20431;-82
2022/09/26 12:16:20;;;;;;;3.30;2.15;;;12.20;99.90;;;;;;5049556;28;20124;-83
2022/09/26 12:18:56;;;;;;;5.15;2.90;;;12.20;99.90;;;;;;5056843;28;20048;-82
2022/09/26 12:21:38;;;;;;;3.33;2.40;;;12.20;99.90;;;;;;5054543;28;20090;-83
2022/09/26 12:24:09;;;;;;;5.45;2.33;;;12.20;99.90;;;;;;5042297;28;20504;-82
2022/09/26 12:26:58;;;;;;;5.63;2.05;;;12.60;99.90;;;;;;5057005;28;20045;-83
2022/09/26 12:29:51;;;;;;;4.68;2.42;;;12.30;99.90;;;;;;5041374;28;20041;-82
2022/09/26 12:32:45;;;;;;;4.43;2.75;;;12.30;99.90;;;;;;5044409;28;20433;-83
2022/09/26 12:35:28;;;;;;;4.07;2.53;;;12.40;99.90;;;;;;5028795;28;20120;-82
2022/09/26 12:38:17;;;;;;;4.25;2.22;;;12.40;99.90;;;;;;5039623;28;20076;-83
2022/09/26 12:40:55;;;;;;;3.30;2.22;;;12.40;99.90;;;;;;5042289;28;20091;-83
2022/09/26 12:43:32;;;;;;;11.32;1.80;;;12.40;99.90;;;;;;5039333;28;20099;-82
2022/09/26 12:46:06;;;;;;;3.80;2.13;;;12.40;99.90;;;;;;5042701;28;20073;-83
2022/09/26 12:48:31;;;;;;;5.63;2.28;;;12.30;99.90;;;;;;5043326;28;20126;-82
2022/09/26 12:51:27;;;;;;;6.03;2.20;;;12.40;99.90;;;;;;5039220;28;20169;-83
2022/09/26 12:54:31;;;;;;;4.43;1.60;;;12.40;99.90;;;;;;5039565;28;20060;-82
2022/09/26 12:57:37;;;;;;;2.97;1.92;;;12.40;99.90;;;;;;5039250;28;20053;-83
2022/09/26 13:00:39;;;;;;;6.72;2.17;;;12.30;99.90;;;;;;5042726;28;20044;-83
2022/09/26 13:03:55;;;;;;;4.63;2.00;;;12.40;99.90;;;;;;5033590;28;20505;-84
2022/09/26 13:06:54;;;;;;;2.42;1.35;;;12.40;99.90;;;;;;5048244;28;20132;-83
2022/09/26 13:09:32;;;;;;;2.40;1.52;;;12.50;99.90;;;;;;5040963;28;20041;-82
2022/09/26 13:12:19;;;;;;;5.63;2.15;;;12.40;99.90;;;;;;5040873;28;20038;-83
2022/09/26 13:14:45;;;;;;;2.38;1.67;;;12.50;99.90;;;;;;5037953;28;20076;-82
2022/09/26 13:17:22;;;;;;;3.33;1.63;;;12.50;99.90;;;;;;5040865;28;20115;-82
2022/09/26 13:19:50;;;;;;;3.33;1.50;;;12.50;99.90;;;;;;5038120;28;20585;-81
2022/09/26 13:22:39;;;;;;;1.92;1.33;;;12.50;99.90;;;;;;5018813;28;20041;-82
2022/09/26 13:25:47;;;;;;;3.78;1.48;;;12.60;99.90;;;;;;5039957;28;20048;-83
2022/09/26 13:28:22;;;;;;;3.28;1.48;;;12.60;99.90;;;;;;5042251;28;20052;-82
2022/09/26 13:31:15;;;;;;;2.00;1.20;;;12.60;99.90;;;;;;5042431;28;20044;-82
2022/09/26 13:33:50;;;;;;;1.63;1.00;;;12.60;99.90;;;;;;5038367;28;20075;-83
2022/09/26 13:36:19;;;;;;;4.23;0.83;;;12.70;99.90;;;;;;5023630;28;20103;-83
2022/09/26 13:38:55;;;;;;;2.08;1.10;;;12.80;99.90;;;;;;5025309;28;20033;-85
2022/09/26 13:41:38;;;;;;;2.45;1.58;;;12.80;99.90;;;;;;5038327;28;20485;-82
2022/09/26 13:44:14;;;;;;;1.58;1.10;;;13.00;99.90;;;;;;5039433;28;20043;-83
2022/09/26 13:47:11;;;;;;;1.92;1.05;;;13.00;99.90;;;;;;5041550;28;20072;-83
2022/09/26 14:11:48;;;;;;;1.20;0.90;;;13.30;99.90;;;;;;5040714;28;20070;-84
2022/09/26 14:14:17;;;;;;;1.17;0.80;;;13.30;99.90;;;;;;5037822;28;20069;-82
2022/09/26 14:17:25;;;;;;;1.98;1.00;;;13.30;99.90;;;;;;5039244;28;20041;-83
2022/09/26 14:19:56;;;;;;;1.40;0.82;;;13.30;99.90;;;;;;5037647;28;20120;-84
2022/09/26 14:22:33;;;;;;;2.83;0.90;;;13.50;99.90;;;;;;5026295;28;20044;-84
2022/09/26 14:25:02;;;;;;;1.13;1.02;;;13.40;99.90;;;;;;5038496;28;20482;-84
2022/09/26 14:38:47;;;;;;;1.58;1.08;;;13.40;99.90;;;;;;5026219;28;20119;-83
2022/09/26 14:41:21;;;;;;;1.10;1.00;;;13.40;99.90;;;;;;5035981;28;20065;-83
2022/09/26 14:44:04;;;;;;;2.45;1.63;;;13.40;99.90;;;;;;5038341;28;20052;-84
2022/09/26 14:46:34;;;;;;;2.47;1.23;;;13.40;99.90;;;;;;5037346;28;20041;-85
2022/09/26 14:49:04;;;;;;;2.00;1.40;;;13.50;99.90;;;;;;5032775;28;20098;-83
2022/09/26 14:51:36;;;;;;;3.47;1.80;;;13.80;99.90;;;;;;5035446;28;20068;-85
2022/09/26 14:54:22;;;;;;;6.68;1.65;;;13.40;99.90;;;;;;5017698;28;20091;-85
2022/09/26 14:57:07;;;;;;;3.25;2.30;;;13.40;99.90;;;;;;5041842;28;20083;-84
2022/09/26 14:59:32;;;;;;;2.03;1.55;;;13.50;99.90;;;;;;5035273;28;20155;-84
2022/09/26 15:02:16;;;;;;;3.65;1.80;;;13.30;99.90;;;;;;5037102;28;20449;-84
2022/09/26 15:04:44;;;;;;;3.25;2.40;;;13.30;99.90;;;;;;5022491;28;20532;-82
2022/09/26 15:07:23;;;;;;;3.17;1.92;;;13.40;99.90;;;;;;5037023;28;20049;-81
2022/09/26 15:09:55;;;;;;;2.33;1.90;;;13.30;99.90;;;;;;5034094;28;20156;-81
2022/09/26 15:12:36;;;;;;;2.55;2.20;;;13.30;99.90;;;;;;5035983;28;20045;-83
2022/09/26 15:15:06;;;;;;;3.53;2.20;;;13.30;99.90;;;;;;5037968;28;20044;-81
2022/09/26 15:17:37;;;;;;;2.53;2.00;;;13.30;99.90;;;;;;5038606;28;20059;-84
2022/09/26 15:20:15;;;;;;;3.40;2.20;;;13.30;99.90;;;;;;5042100;28;20053;-86
2022/09/26 15:22:42;;;;;;;1.52;1.42;;;13.40;99.90;;;;;;5023457;28;20050;-83
2022/09/26 15:25:17;;;;;;;3.08;2.00;;;13.30;99.90;;;;;;5035301;28;20160;-81
2022/09/26 15:27:45;;;;;;;2.83;1.92;;;13.30;99.90;;;;;;5036894;28;20080;-82
2022/09/26 15:30:21;;;;;;;2.83;1.92;;;13.20;99.90;;;;;;5036641;28;20042;-83
2022/09/26 15:32:49;;;;;;;2.40;2.10;;;13.20;99.90;;;;;;5033666;28;20063;-81